Time;durP1;ratioP1;P1;durP2;ratioP2;P2;SDS_P1;SDS_P2;PMS_P1;PMS_P2;Temp;Humidity;BMP_temperature;BMP_pressure;BME280_temperature;BME280_humidity;BME280_pressure;Samples;Min_cycle;Max_cycle;Signal;HPM_P1;HPM_P2
2021/12/18 00:01:32;;;;;;;1.63;1.25;;;;;;;17.12;60.28;103666.38;19660380;30;20067;-73
2021/12/18 00:11:34;;;;;;;1.13;1.02;;;;;;;17.21;60.18;103677.59;19660610;30;20435;-73
2021/12/18 00:21:36;;;;;;;1.42;1.33;;;;;;;17.20;59.99;103673.16;19659294;30;20072;-73
2021/12/18 00:31:38;;;;;;;1.40;1.20;;;;;;;16.60;59.87;103573.38;19643939;30;20645;-74
2021/12/18 00:51:47;;;;;;;0.88;0.80;;;;;;;16.77;59.75;103619.28;19715016;30;20063;-73
2021/12/18 01:01:49;;;;;;;0.95;0.85;;;;;;;16.95;59.18;103660.69;19730500;30;20047;-74
2021/12/18 01:11:51;;;;;;;1.00;1.00;;;;;;;17.11;59.50;103678.94;20122402;24;20517;-75
2021/12/18 01:32:14;;;;;;;0.80;0.80;;;;;;;17.08;59.60;103684.44;19727341;30;20522;-75
2021/12/18 01:52:39;;;;;;;1.00;0.90;;;;;;;17.19;59.97;103695.63;19714771;30;20083;-75
2021/12/18 02:02:40;;;;;;;0.93;0.70;;;;;;;17.20;59.75;103681.25;19712400;30;20063;-74
2021/12/18 02:22:48;;;;;;;0.50;0.50;;;;;;;17.01;59.44;103643.44;19726118;30;20102;-75
2021/12/18 02:32:50;;;;;;;0.60;0.60;;;;;;;17.17;59.47;103680.50;19738716;30;20060;-72
2021/12/18 02:42:52;;;;;;;0.40;0.40;;;;;;;16.77;59.45;103615.69;19738375;30;20117;-73
2021/12/18 02:52:54;;;;;;;0.40;0.40;;;;;;;16.80;59.28;103623.66;19752888;30;20086;-76
2021/12/18 03:02:56;;;;;;;0.40;0.40;;;;;;;17.01;58.98;103658.72;19736884;30;20089;-75
2021/12/18 03:23:46;;;;;;;0.30;0.30;;;;;;;17.17;58.88;103675.97;19734681;30;20515;-76
2021/12/18 03:33:48;;;;;;;0.40;0.40;;;;;;;17.17;58.70;103667.91;19734801;30;20064;-76
2021/12/18 03:43:50;;;;;;;0.73;0.50;;;;;;;17.16;58.77;103651.84;19734664;30;20054;-76
2021/12/18 03:53:52;;;;;;;0.60;0.50;;;;;;;17.09;58.55;103635.06;19734990;30;20059;-76
2021/12/18 04:03:54;;;;;;;0.47;0.40;;;;;;;17.05;58.42;103633.44;19718250;30;20151;-76
2021/12/18 04:13:57;;;;;;;0.60;0.57;;;;;;;17.15;58.57;103663.53;19731677;30;20052;-75
2021/12/18 04:24:03;;;;;;;0.50;0.50;;;;;;;17.16;58.23;103649.16;19731108;30;20063;-76
2021/12/18 04:34:05;;;;;;;0.52;0.43;;;;;;;16.66;58.35;103579.34;19745772;29;20495;-76
2021/12/18 04:44:07;;;;;;;1.65;0.50;;;;;;;17.14;58.18;103642.94;19744763;29;20502;-76
2021/12/18 04:54:09;;;;;;;0.45;0.40;;;;;;;16.65;58.10;103566.84;19729187;30;20105;-76
2021/12/18 05:04:13;;;;;;;0.40;0.30;;;;;;;17.00;58.02;103639.00;19729817;30;20076;-75
2021/12/18 05:14:16;;;;;;;0.50;0.40;;;;;;;17.07;58.05;103637.84;19728546;30;20568;-75
2021/12/18 05:24:17;;;;;;;0.40;0.40;;;;;;;17.13;58.22;103644.75;19728641;30;20499;-76
2021/12/18 05:34:24;;;;;;;0.40;0.32;;;;;;;17.15;58.24;103640.19;19712516;30;20064;-75
2021/12/18 05:44:26;;;;;;;0.40;0.40;;;;;;;17.15;58.18;103650.94;19737439;30;20064;-76
2021/12/18 05:54:28;;;;;;;0.30;0.30;;;;;;;16.75;58.29;103570.03;19742963;30;20067;-75
2021/12/18 06:04:29;;;;;;;0.30;0.30;;;;;;;16.63;58.52;103551.72;19742601;30;20063;-76
2021/12/18 06:14:31;;;;;;;0.30;0.30;;;;;;;16.74;58.34;103570.97;19725768;30;20506;-76
2021/12/18 06:24:33;;;;;;;0.45;0.30;;;;;;;17.05;58.22;103628.06;19739577;30;20135;-75
2021/12/18 06:34:35;;;;;;;0.95;0.20;;;;;;;17.16;58.36;103638.38;19740421;30;20059;-76
2021/12/18 06:44:37;;;;;;;0.45;0.40;;;;;;;17.14;58.33;103633.03;19753687;30;20115;-76
2021/12/18 06:54:38;;;;;;;0.43;0.40;;;;;;;16.98;58.30;103605.03;19752371;30;20089;-75
2021/12/18 07:04:42;;;;;;;1.33;0.60;;;;;;;16.89;58.45;103584.72;19737374;30;20117;-76
2021/12/18 07:14:44;;;;;;;0.40;0.38;;;;;;;16.64;58.32;103543.56;19663425;30;20084;-78
2021/12/18 07:24:47;;;;;;;0.40;0.35;;;;;;;17.14;58.34;103635.75;19662557;30;20100;-78
2021/12/18 07:34:49;;;;;;;0.35;0.30;;;;;;;17.11;58.31;103614.34;19662761;30;20063;-79
2021/12/18 07:44:51;;;;;;;1.05;0.40;;;;;;;17.34;58.39;103629.50;19662582;30;20069;-77
2021/12/18 07:54:53;;;;;;;0.70;0.50;;;;;;;17.00;58.15;103560.09;19662000;30;20096;-76
2021/12/18 08:04:54;;;;;;;0.50;0.50;;;;;;;16.95;58.08;103544.09;19673710;30;20113;-77
2021/12/18 08:14:58;;;;;;;0.98;0.60;;;;;;;17.34;58.34;103599.03;19673203;30;20056;-76
2021/12/18 08:25:01;;;;;;;0.60;0.57;;;;;;;17.35;58.41;103612.41;19659692;30;20499;-76
2021/12/18 08:35:04;;;;;;;1.63;0.80;;;;;;;17.12;58.48;103569.47;19657065;30;20064;-76
2021/12/18 08:45:07;;;;;;;0.50;0.47;;;;;;;16.73;58.37;103498.41;19690992;30;20060;-76
2021/12/18 08:55:09;;;;;;;1.67;0.70;;;;;;;17.47;58.87;103619.09;19677660;30;20550;-77
2021/12/18 09:05:11;;;;;;;1.08;0.65;;;;;;;17.15;59.17;103564.81;19663562;30;20138;-72
2021/12/18 09:15:13;;;;;;;2.47;0.55;;;;;;;17.38;59.45;103603.34;19660878;30;20067;-74
2021/12/18 09:25:15;;;;;;;0.90;0.63;;;;;;;17.36;59.24;103616.00;19675987;30;20102;-75
2021/12/18 09:35:17;;;;;;;2.22;0.57;;;;;;;17.48;59.70;103633.44;19646238;30;20056;-74
2021/12/18 09:45:19;;;;;;;1.63;0.65;;;;;;;17.01;59.71;103540.31;19675333;30;20098;-72
2021/12/18 09:55:21;;;;;;;1.42;0.45;;;;;;;17.36;59.83;103616.00;19674909;30;20426;-73
2021/12/18 10:05:29;;;;;;;0.70;0.60;;;;;;;17.42;59.71;103614.81;19659902;30;20060;-73
2021/12/18 10:15:32;;;;;;;1.83;0.50;;;;;;;16.96;59.67;103522.50;19674317;30;20057;-72
2021/12/18 10:25:42;;;;;;;1.08;0.40;;;;;;;17.37;59.72;103590.81;19647405;30;20122;-72
2021/12/18 10:35:55;;;;;;;0.75;0.50;;;;;;;17.01;59.61;103518.78;19673636;30;20071;-72
2021/12/18 10:45:57;;;;;;;2.05;0.50;;;;;;;16.98;59.91;103502.78;19674254;30;20056;-72
2021/12/18 10:56:03;;;;;;;1.80;0.60;;;;;;;16.51;59.67;103449.06;19672462;30;20064;-72
2021/12/18 11:06:11;;;;;;;4.95;1.45;;;;;;;17.37;59.75;103577.34;19674531;30;20123;-72
2021/12/18 11:16:13;;;;;;;2.33;0.70;;;;;;;17.00;59.64;103495.50;19744294;30;20056;-72
2021/12/18 11:26:15;;;;;;;2.35;0.55;;;;;;;17.23;59.39;103525.00;19742632;30;20063;-72
2021/12/18 11:36:18;;;;;;;1.35;0.50;;;;;;;16.92;59.82;103468.88;19742148;30;20051;-72
2021/12/18 11:46:35;;;;;;;4.07;0.88;;;;;;;16.84;59.61;103430.69;19741276;30;20391;-72
2021/12/18 11:56:47;;;;;;;2.40;0.82;;;;;;;16.94;59.41;103445.47;19741609;30;20059;-72
2021/12/18 12:06:49;;;;;;;2.15;0.73;;;;;;;16.90;59.46;103428.59;19740864;30;20060;-72
2021/12/18 12:16:51;;;;;;;1.48;0.60;;;;;;;17.36;59.34;103492.97;19739098;30;20105;-72
2021/12/18 12:26:54;;;;;;;1.30;0.60;;;;;;;17.31;59.45;103473.47;19739743;30;20051;-71
2021/12/18 12:37:00;;;;;;;2.15;0.70;;;;;;;17.33;59.59;103476.13;19722781;30;20142;-75
2021/12/18 12:47:26;;;;;;;1.02;0.47;;;;;;;17.40;59.56;103482.97;19722488;30;20494;-72
2021/12/18 12:57:29;;;;;;;0.77;0.47;;;;;;;17.42;59.71;103470.31;19736415;30;20081;-75
2021/12/18 13:07:32;;;;;;;2.03;0.60;;;;;;;17.01;59.76;103392.28;19750367;30;20537;-73
2021/12/18 13:17:34;;;;;;;1.70;0.60;;;;;;;17.34;59.82;103467.09;19736176;30;20154;-74
2021/12/18 13:27:40;;;;;;;1.33;0.60;;;;;;;17.38;59.76;103463.31;19736217;30;20105;-75
2021/12/18 13:37:42;;;;;;;2.28;0.77;;;;;;;17.37;59.88;103450.78;19719995;30;20449;-74
2021/12/18 13:47:47;;;;;;;0.93;0.50;;;;;;;17.24;60.27;103420.84;19734006;30;20442;-74
2021/12/18 13:57:56;;;;;;;0.88;0.50;;;;;;;17.30;60.32;103408.94;19719462;30;20099;-74
2021/12/18 14:07:58;;;;;;;1.77;0.70;;;;;;;17.11;60.50;103361.31;19748112;30;20062;-74
2021/12/18 14:18:00;;;;;;;1.50;0.60;;;;;;;17.44;60.40;103424.44;19747263;30;20103;-73
2021/12/18 14:28:02;;;;;;;2.15;0.73;;;;;;;17.44;60.40;103421.75;19747958;30;20062;-73
2021/12/18 14:38:04;;;;;;;1.92;0.98;;;;;;;17.35;60.50;103418.53;19760560;30;20062;-73
2021/12/18 14:48:06;;;;;;;1.58;0.70;;;;;;;17.03;60.48;103356.31;19746269;30;20446;-74
2021/12/18 14:58:28;;;;;;;1.45;0.75;;;;;;;17.02;60.32;103359.06;19729900;30;20051;-73
2021/12/18 15:08:55;;;;;;;4.55;1.23;;;;;;;17.03;60.50;103360.81;19729053;30;20055;-73
2021/12/18 15:19:00;;;;;;;1.60;1.02;;;;;;;17.40;60.41;103427.28;19727169;30;20051;-74
2021/12/18 15:29:05;;;;;;;3.63;0.80;;;;;;;17.25;60.23;103391.19;19742617;30;20095;-73
2021/12/18 15:39:08;;;;;;;2.17;0.67;;;;;;;17.39;60.56;103424.66;19743214;30;20391;-73
2021/12/18 15:49:10;;;;;;;2.63;0.98;;;;;;;17.43;59.86;103442.44;19742494;30;20062;-73
2021/12/18 15:59:12;;;;;;;2.40;1.20;;;;;;;17.40;60.03;103426.41;19725476;30;20135;-74
2021/12/18 16:09:13;;;;;;;3.17;1.00;;;;;;;17.09;60.06;103361.41;19740665;30;20071;-73
2021/12/18 16:19:15;;;;;;;1.92;0.80;;;;;;;17.43;59.81;103422.69;19724041;30;20055;-73
2021/12/18 16:29:17;;;;;;;1.38;0.80;;;;;;;17.25;59.86;103387.59;19739012;30;20116;-73
2021/12/18 16:39:19;;;;;;;1.73;0.60;;;;;;;17.06;59.60;103352.59;19723258;30;20060;-73
2021/12/18 16:49:21;;;;;;;2.60;0.70;;;;;;;17.45;59.46;103443.22;19722089;30;20055;-71
2021/12/18 16:59:23;;;;;;;1.95;0.77;;;;;;;17.36;59.40;103405.97;19721171;30;20059;-71
2021/12/18 17:09:25;;;;;;;1.88;0.80;;;;;;;17.42;59.95;103429.91;19737007;30;20075;-71
2021/12/18 17:19:27;;;;;;;2.28;0.82;;;;;;;17.07;59.50;103333.69;19736285;30;20063;-71
2021/12/18 17:29:31;;;;;;;3.17;1.00;;;;;;;17.47;59.25;103424.31;19735838;30;20077;-71
2021/12/18 17:39:33;;;;;;;2.78;0.82;;;;;;;16.96;59.42;103326.06;19734802;30;20048;-71
2021/12/18 17:49:35;;;;;;;1.65;0.95;;;;;;;17.34;59.53;103389.00;19719486;30;20509;-71
2021/12/18 17:59:37;;;;;;;1.38;0.88;;;;;;;16.37;59.36;103201.47;19748820;30;20072;-71
2021/12/18 18:09:39;;;;;;;1.08;0.60;;;;;;;17.01;59.45;103295.41;19734724;30;20059;-71
2021/12/18 18:19:42;;;;;;;1.77;0.70;;;;;;;17.51;59.41;103366.66;19748236;30;20056;-71
2021/12/18 18:29:44;;;;;;;0.88;0.80;;;;;;;17.03;59.28;103291.72;19733685;30;20407;-71
2021/12/18 18:39:46;;;;;;;2.03;0.82;;;;;;;17.07;59.24;103278.97;19732332;30;20056;-71
2021/12/18 18:49:48;;;;;;;2.55;0.70;;;;;;;17.42;58.94;103340.16;19739715;30;20056;-70
2021/12/18 18:59:50;;;;;;;0.95;0.60;;;;;;;17.36;58.79;103325.19;19745760;30;20138;-70
2021/12/18 19:09:52;;;;;;;1.25;0.90;;;;;;;17.43;58.74;103342.78;19728841;30;20110;-71
2021/12/18 19:20:06;;;;;;;1.27;0.68;;;;;;;17.46;58.95;103331.00;19743137;30;20066;-71
2021/12/18 19:30:20;;;;;;;2.28;0.80;;;;;;;17.48;58.88;103354.22;19743669;30;20059;-71
2021/12/18 19:40:22;;;;;;;1.20;0.70;;;;;;;17.36;58.78;103335.94;19742846;30;20059;-71
2021/12/18 19:50:24;;;;;;;1.83;1.00;;;;;;;17.38;58.63;103342.13;19755997;30;20063;-71
2021/12/18 20:00:28;;;;;;;1.40;0.98;;;;;;;17.29;58.37;103334.50;19724623;30;20063;-71
2021/12/18 20:10:30;;;;;;;1.27;0.95;;;;;;;17.14;58.60;103334.25;19754389;30;20128;-71
2021/12/18 20:20:34;;;;;;;1.63;1.15;;;;;;;16.60;58.68;103285.59;19724031;30;20414;-71
2021/12/18 20:30:36;;;;;;;1.73;1.10;;;;;;;16.87;59.16;103310.38;19752995;30;20090;-71
2021/12/18 20:40:40;;;;;;;1.42;1.02;;;;;;;16.45;59.25;103231.56;19737358;30;20434;-71
2021/12/18 20:50:41;;;;;;;1.70;0.98;;;;;;;16.61;59.51;103272.06;19722524;30;20063;-71
2021/12/18 21:00:53;;;;;;;1.60;1.10;;;;;;;16.70;59.59;103288.72;19737323;30;20051;-71
2021/12/18 21:10:55;;;;;;;1.15;1.00;;;;;;;16.52;59.89;103264.41;19750540;30;20059;-71
2021/12/18 21:20:59;;;;;;;1.10;0.95;;;;;;;16.54;59.98;103267.91;19736107;30;20064;-71
2021/12/18 21:31:02;;;;;;;1.17;1.00;;;;;;;16.02;60.02;103191.34;19734617;30;20068;-74
2021/12/18 21:41:04;;;;;;;2.33;1.00;;;;;;;16.38;60.43;103265.94;19734149;30;20056;-73
2021/12/18 21:51:06;;;;;;;1.05;0.63;;;;;;;16.30;60.48;103254.63;19735301;30;20511;-74
2021/12/18 22:01:08;;;;;;;1.08;0.80;;;;;;;15.97;60.69;103196.06;19733591;30;20056;-74
2021/12/18 22:11:10;;;;;;;0.88;0.80;;;;;;;15.85;60.60;103169.69;19733634;30;20062;-74
2021/12/18 22:21:13;;;;;;;1.30;0.90;;;;;;;15.79;61.12;103179.75;19736372;30;20064;-74
2021/12/18 22:31:15;;;;;;;1.08;0.80;;;;;;;16.05;61.06;103236.91;19746703;30;20056;-74
2021/12/18 22:41:17;;;;;;;1.13;0.80;;;;;;;15.99;60.96;103223.75;19747151;30;20060;-73
2021/12/18 22:51:19;;;;;;;1.25;0.70;;;;;;;15.75;61.15;103193.41;19745401;30;20067;-73
2021/12/18 23:01:24;;;;;;;0.80;0.80;;;;;;;15.42;61.29;103135.69;19715144;30;20059;-74
2021/12/18 23:11:32;;;;;;;1.07;0.63;;;;;;;15.78;61.32;103182.53;19729755;30;20109;-73
2021/12/18 23:21:39;;;;;;;0.50;0.50;;;;;;;15.75;61.33;103194.25;19729185;30;20060;-73
2021/12/18 23:31:40;;;;;;;1.70;0.80;;;;;;;15.64;61.40;103185.81;19742672;30;20067;-74
2021/12/18 23:41:51;;;;;;;1.00;0.90;;;;;;;15.58;61.45;103169.97;19741771;30;20064;-74
2021/12/18 23:51:54;;;;;;;1.33;0.80;;;;;;;15.06;61.63;103072.78;19741226;30;20060;-74
